createdAt,value
2023-04-09T00:02:37.717Z,9.98
2023-04-09T00:07:39.568Z,10.70
2023-04-09T00:12:41.285Z,9.73
2023-04-09T00:17:43.057Z,9.05
2023-04-09T00:22:44.667Z,9.27
2023-04-09T00:27:46.251Z,9.45
2023-04-09T00:32:47.899Z,9.15
2023-04-09T00:37:49.780Z,10.23
2023-04-09T00:42:51.417Z,9.65
2023-04-09T00:47:53.679Z,10.70
2023-04-09T00:52:56.132Z,11.13
2023-04-09T00:57:57.719Z,11.52
2023-04-09T01:03:00.876Z,9.77
2023-04-09T01:08:08.738Z,9.80
2023-04-09T01:13:20.425Z,9.32
2023-04-09T01:18:43.043Z,9.30
2023-04-09T01:23:52.478Z,9.50
2023-04-09T01:28:56.093Z,12.02
2023-04-09T01:34:00.778Z,11.00
2023-04-09T01:39:03.235Z,8.40
2023-04-09T01:44:07.724Z,11.07
2023-04-09T01:49:12.461Z,11.38
2023-04-09T01:54:14.584Z,9.40
2023-04-09T01:59:16.274Z,10.43
2023-04-09T02:04:44.057Z,11.93
2023-04-09T02:09:47.841Z,9.13
2023-04-09T02:14:52.410Z,11.38
2023-04-09T02:19:54.078Z,7.93
2023-04-09T02:24:55.793Z,8.93
2023-04-09T02:29:57.424Z,8.70
2023-04-09T02:34:59.018Z,9.68
2023-04-09T02:40:00.613Z,11.77
2023-04-09T02:45:02.179Z,7.43
2023-04-09T02:50:04.577Z,10.02
2023-04-09T02:55:06.758Z,8.40
2023-04-09T03:00:09.086Z,10.65
2023-04-09T03:05:10.742Z,11.45
2023-04-09T03:10:12.310Z,7.75
2023-04-09T03:15:13.920Z,8.77
2023-04-09T03:20:15.576Z,9.05
2023-04-09T03:25:19.580Z,8.23
2023-04-09T03:30:21.384Z,8.45
2023-04-09T03:35:23.005Z,7.47
2023-04-09T03:40:24.719Z,8.15
2023-04-09T03:45:27.066Z,7.95
2023-04-09T03:50:28.644Z,6.65
2023-04-09T03:55:30.558Z,9.55
2023-04-09T04:00:32.176Z,7.93
2023-04-09T04:05:33.793Z,8.00
2023-04-09T04:10:35.356Z,9.98
2023-04-09T04:15:43.310Z,8.98
2023-04-09T04:20:44.970Z,9.77
2023-04-09T04:25:46.657Z,8.68
2023-04-09T04:30:48.483Z,7.47
2023-04-09T04:35:50.124Z,9.43
2023-04-09T04:40:51.676Z,8.32
2023-04-09T04:45:53.700Z,7.13
2023-04-09T04:51:00.346Z,7.30
2023-04-09T04:56:01.942Z,8.82
2023-04-09T05:01:03.653Z,10.02
2023-04-09T05:06:05.327Z,8.25
2023-04-09T05:11:06.917Z,8.15
2023-04-09T05:16:08.524Z,7.85
2023-04-09T05:21:10.108Z,8.50
2023-04-09T05:26:11.665Z,8.60
2023-04-09T05:31:13.735Z,8.15
2023-04-09T05:36:17.296Z,6.68
2023-04-09T05:41:18.912Z,7.80
2023-04-09T05:46:20.526Z,8.20
2023-04-09T05:51:22.112Z,8.05
2023-04-09T05:56:23.755Z,9.77
2023-04-09T06:01:25.350Z,7.72
2023-04-09T06:06:27.182Z,7.35
2023-04-09T06:11:28.774Z,8.80
2023-04-09T06:16:30.631Z,8.77
2023-04-09T06:21:33.303Z,6.93
2023-04-09T06:26:34.893Z,7.72
2023-04-09T06:31:36.601Z,6.95
2023-04-09T06:36:40.451Z,7.65
2023-04-09T06:41:42.113Z,9.13
2023-04-09T06:46:43.727Z,8.88
2023-04-09T06:51:45.384Z,7.15
2023-04-09T06:56:46.988Z,7.28
2023-04-09T07:01:48.893Z,6.90
2023-04-09T07:06:51.688Z,8.77
2023-04-09T07:11:53.281Z,7.43
2023-04-09T07:16:54.830Z,6.47
2023-04-09T07:21:56.892Z,7.65
2023-04-09T07:26:58.441Z,7.78
2023-04-09T07:32:01.462Z,9.48
2023-04-09T07:37:03.530Z,8.90
2023-04-09T07:42:06.030Z,9.57
2023-04-09T07:47:08.835Z,9.20
2023-04-09T07:52:10.853Z,11.30
2023-04-09T07:57:12.452Z,11.13
2023-04-09T08:02:15.452Z,12.13
2023-04-09T08:07:17.173Z,10.50
2023-04-09T08:12:18.748Z,9.88
2023-04-09T08:17:20.362Z,9.35
2023-04-09T08:22:22.061Z,10.90
2023-04-09T08:27:23.692Z,12.05
2023-04-09T08:32:25.413Z,10.35
2023-04-09T08:37:27.493Z,9.07
2023-04-09T08:42:31.335Z,9.35
2023-04-09T08:47:34.310Z,9.13
2023-04-09T08:52:37.354Z,8.38
2023-04-09T08:57:39.816Z,10.98
2023-04-09T09:03:08.435Z,11.98
2023-04-09T09:08:12.662Z,11.52
2023-04-09T09:13:24.954Z,11.55
2023-04-09T09:18:41.641Z,10.60
2023-04-09T09:28:47.058Z,7.93
2023-04-09T09:33:50.585Z,8.35
2023-04-09T09:38:57.337Z,9.60
2023-04-09T09:49:00.603Z,8.18
2023-04-09T09:54:02.643Z,7.32
2023-04-09T09:59:23.943Z,7.00
2023-04-09T10:04:28.825Z,6.35
2023-04-09T10:09:31.380Z,5.75
2023-04-09T10:14:36.034Z,7.22
2023-04-09T10:19:49.369Z,4.80
2023-04-09T10:24:52.743Z,4.60
2023-04-09T10:29:54.398Z,5.20
2023-04-09T10:35:01.780Z,5.30
2023-04-09T10:40:04.026Z,6.35
2023-04-09T10:45:15.258Z,4.07
2023-04-09T10:50:27.916Z,4.40
2023-04-09T10:55:48.325Z,3.83
2023-04-09T11:00:52.378Z,2.97
2023-04-09T11:06:06.044Z,2.90
2023-04-09T11:11:07.686Z,2.97
2023-04-09T11:16:09.292Z,3.90
2023-04-09T11:21:13.509Z,2.97
2023-04-09T11:26:15.084Z,3.22
2023-04-09T11:31:16.749Z,3.97
2023-04-09T11:36:18.996Z,3.08
2023-04-09T11:41:36.216Z,3.80
2023-04-09T11:46:39.078Z,4.85
2023-04-09T11:51:41.020Z,3.97
2023-04-09T11:56:42.987Z,5.22
2023-04-09T12:01:49.824Z,4.95
2023-04-09T12:11:53.673Z,3.28
2023-04-09T12:16:55.386Z,3.08
2023-04-09T12:21:58.505Z,4.07
2023-04-09T12:27:01.694Z,3.42
2023-04-09T12:32:03.667Z,3.72
2023-04-09T12:37:05.548Z,4.45
2023-04-09T12:42:07.147Z,4.35
2023-04-09T12:47:08.822Z,4.05
2023-04-09T12:52:10.445Z,3.58
2023-04-09T12:57:12.018Z,3.28
2023-04-09T13:02:13.768Z,5.60
2023-04-09T13:07:17.575Z,3.75
2023-04-09T13:12:21.598Z,3.95
2023-04-09T13:17:23.424Z,3.47
2023-04-09T13:22:25.069Z,3.28
2023-04-09T13:27:26.639Z,3.40
2023-04-09T13:32:28.274Z,3.92
2023-04-09T13:37:29.891Z,4.28
2023-04-09T13:42:31.721Z,4.80
2023-04-09T13:47:33.382Z,2.95
2023-04-09T13:52:35.078Z,2.13
2023-04-09T13:57:36.776Z,2.97
2023-04-09T14:02:38.430Z,3.35
2023-04-09T14:07:40.058Z,2.53
2023-04-09T14:12:41.953Z,2.63
2023-04-09T14:17:44.158Z,2.28
2023-04-09T14:22:49.190Z,3.67
2023-04-09T14:27:50.919Z,3.08
2023-04-09T14:32:52.581Z,3.15
2023-04-09T14:37:54.251Z,4.72
2023-04-09T14:42:55.849Z,4.35
2023-04-09T14:47:57.591Z,2.75
2023-04-09T14:52:59.642Z,2.28
2023-04-09T14:58:04.346Z,3.22
2023-04-09T15:03:06.570Z,3.67
2023-04-09T15:08:08.310Z,2.55
2023-04-09T15:13:09.971Z,1.67
2023-04-09T15:18:11.527Z,2.45
2023-04-09T15:23:13.201Z,2.22
2023-04-09T15:28:14.765Z,3.40
2023-04-09T15:33:16.384Z,3.15
2023-04-09T15:38:18.012Z,1.85
2023-04-09T15:43:19.629Z,3.30
2023-04-09T15:48:21.217Z,2.60
2023-04-09T15:53:26.687Z,2.47
2023-04-09T15:58:28.863Z,2.65
2023-04-09T16:03:35.357Z,2.53
2023-04-09T16:08:37.552Z,2.17
2023-04-09T16:13:39.170Z,2.28
2023-04-09T16:18:40.826Z,2.00
2023-04-09T16:23:42.487Z,1.70
2023-04-09T16:28:44.099Z,3.00
2023-04-09T16:33:45.909Z,1.73
2023-04-09T16:38:48.265Z,3.15
2023-04-09T16:43:51.223Z,2.92
2023-04-09T16:48:53.093Z,3.05
2023-04-09T16:53:54.919Z,2.97
2023-04-09T16:58:56.550Z,3.08
2023-04-09T17:03:59.635Z,2.22
2023-04-09T17:09:03.684Z,4.03
2023-04-09T17:14:05.871Z,2.92
2023-04-09T17:19:09.107Z,2.47
2023-04-09T17:24:10.781Z,2.42
2023-04-09T17:29:12.456Z,3.17
2023-04-09T17:34:16.304Z,3.22
2023-04-09T17:39:17.915Z,2.03
2023-04-09T17:44:19.503Z,2.70
2023-04-09T17:49:22.465Z,5.60
2023-04-09T17:54:24.247Z,3.35
2023-04-09T17:59:25.976Z,2.60
2023-04-09T18:04:27.914Z,3.33
2023-04-09T18:09:29.686Z,3.78
2023-04-09T18:14:32.523Z,3.15
2023-04-09T18:19:34.136Z,4.55
2023-04-09T18:24:35.869Z,2.95
2023-04-09T18:29:37.453Z,3.95
2023-04-09T18:34:39.012Z,2.97
2023-04-09T18:39:40.967Z,5.05
2023-04-09T18:44:42.670Z,3.13
2023-04-09T18:49:44.365Z,3.08
2023-04-09T18:54:46.139Z,3.08
2023-04-09T18:59:48.620Z,4.07
2023-04-09T19:04:50.380Z,2.95
2023-04-09T19:09:52.269Z,3.38
2023-04-09T19:14:54.387Z,2.83
2023-04-09T19:19:56.214Z,3.92
2023-04-09T19:24:57.886Z,3.20
2023-04-09T19:30:01.258Z,3.90
2023-04-09T19:35:03.542Z,5.03
2023-04-09T19:40:11.110Z,3.28
2023-04-09T19:45:12.888Z,3.88
2023-04-09T19:50:14.654Z,3.20
2023-04-09T19:55:16.260Z,3.78
2023-04-09T20:00:17.875Z,2.92
2023-04-09T20:05:21.124Z,3.67
2023-04-09T20:10:22.920Z,3.88
2023-04-09T20:15:24.592Z,4.25
2023-04-09T20:20:26.294Z,3.85
2023-04-09T20:25:33.941Z,4.15
2023-04-09T20:30:35.806Z,3.40
2023-04-09T20:35:37.476Z,3.50
2023-04-09T20:40:39.121Z,3.42
2023-04-09T20:45:40.816Z,3.17
2023-04-09T20:50:42.769Z,3.92
2023-04-09T20:55:44.720Z,3.53
2023-04-09T21:00:46.378Z,3.80
2023-04-09T21:05:47.994Z,4.03
2023-04-09T21:10:49.626Z,4.45
2023-04-09T21:15:51.322Z,3.08
2023-04-09T21:20:53.521Z,3.55
2023-04-09T21:25:55.194Z,3.97
2023-04-09T21:30:57.704Z,3.65
2023-04-09T21:35:59.438Z,4.03
2023-04-09T21:41:01.887Z,5.63
2023-04-09T21:46:03.701Z,5.28
2023-04-09T21:51:09.640Z,4.10
2023-04-09T21:56:11.486Z,4.03
2023-04-09T22:01:26.167Z,4.95
2023-04-09T22:06:30.146Z,4.28
2023-04-09T22:11:34.476Z,4.80
2023-04-09T22:16:36.257Z,5.53
2023-04-09T22:21:37.870Z,5.53
2023-04-09T22:26:40.973Z,4.50
2023-04-09T22:31:42.657Z,4.22
2023-04-09T22:36:44.326Z,5.38
2023-04-09T22:41:45.892Z,5.20
2023-04-09T22:46:47.506Z,5.05
2023-04-09T22:51:49.211Z,4.65
2023-04-09T22:56:50.870Z,4.72
2023-04-09T23:01:52.515Z,5.40
2023-04-09T23:06:54.671Z,4.70
2023-04-09T23:11:57.173Z,4.95
2023-04-09T23:16:58.800Z,4.88
2023-04-09T23:22:00.494Z,6.05
2023-04-09T23:27:02.533Z,4.97
2023-04-09T23:32:04.152Z,4.47
2023-04-09T23:37:05.775Z,5.38
2023-04-09T23:42:07.326Z,4.45
2023-04-09T23:47:09.043Z,6.43
2023-04-09T23:52:10.820Z,5.57
2023-04-09T23:57:12.502Z,6.20
